Time;durP1;ratioP1;P1;durP2;ratioP2;P2;SDS_P1;SDS_P2;PMS_P1;PMS_P2;Temp;Humidity;BMP_temperature;BMP_pressure;BME280_temperature;BME280_humidity;BME280_pressure;Samples;Min_cycle;Max_cycle;Signal;HPM_P1;HPM_P2
2023/09/10 00:01:33;;;;;;;0.40;0.30;;;;;;;18.63;44.79;95673.00;5072688;28;20829;-56
2023/09/10 00:04:02;;;;;;;0.40;0.30;;;;;;;18.80;45.06;95675.75;5073438;28;20437;-56
2023/09/10 00:06:32;;;;;;;0.50;0.30;;;;;;;18.91;45.67;95657.44;5073799;28;20877;-56
2023/09/10 00:09:01;;;;;;;0.50;0.30;;;;;;;18.87;45.05;95670.69;5073664;28;20460;-57
2023/09/10 00:11:29;;;;;;;0.40;0.30;;;;;;;18.87;47.31;95657.25;5073150;28;20520;-57
2023/09/10 00:13:57;;;;;;;0.40;0.30;;;;;;;18.61;44.54;95593.88;5073653;28;20469;-57
2023/09/10 00:16:25;;;;;;;0.40;0.30;;;;;;;18.83;45.16;95664.38;5073948;28;20495;-57
2023/09/10 00:18:54;;;;;;;0.60;0.53;;;;;;;18.74;45.28;95660.88;5072983;28;20456;-57
2023/09/10 00:21:23;;;;;;;0.40;0.30;;;;;;;18.66;44.87;95656.28;5073845;28;20472;-57
2023/09/10 00:23:52;;;;;;;0.63;0.63;;;;;;;18.59;45.04;95647.91;5071261;28;20477;-57
2023/09/10 00:26:21;;;;;;;0.40;0.20;;;;;;;18.59;45.36;95671.25;5073014;28;20960;-57
2023/09/10 00:28:51;;;;;;;0.40;0.20;;;;;;;18.59;44.92;95665.88;5073026;28;20843;-57
2023/09/10 00:31:20;;;;;;;0.63;0.63;;;;;;;18.73;44.81;95666.56;5073241;28;20968;-56
2023/09/10 00:33:48;;;;;;;0.40;0.27;;;;;;;18.68;44.81;95664.81;5072630;28;20442;-57
2023/09/10 00:36:16;;;;;;;0.50;0.30;;;;;;;18.80;44.22;95672.25;5072890;28;20441;-57
2023/09/10 00:38:44;;;;;;;0.40;0.20;;;;;;;18.76;45.17;95668.63;5072872;28;20433;-57
2023/09/10 00:41:14;;;;;;;0.80;0.40;;;;;;;18.48;45.83;95654.63;5072879;28;20452;-56
2023/09/10 00:43:43;;;;;;;0.60;0.50;;;;;;;18.11;47.27;95674.66;5072860;28;20575;-57
2023/09/10 00:46:12;;;;;;;0.50;0.40;;;;;;;18.08;48.41;95677.16;5073195;28;20493;-56
2023/09/10 00:48:40;;;;;;;0.50;0.40;;;;;;;17.66;48.24;95671.19;5046821;28;20840;-56
2023/09/10 00:51:09;;;;;;;0.60;0.40;;;;;;;17.33;48.76;95677.84;5071788;28;20479;-56
2023/09/10 00:53:38;;;;;;;0.87;0.47;;;;;;;17.23;48.72;95666.59;5072439;28;20854;-56
2023/09/10 00:56:07;;;;;;;0.40;0.20;;;;;;;17.42;48.03;95669.88;5072018;28;20437;-57
2023/09/10 00:58:37;;;;;;;0.67;0.40;;;;;;;17.93;47.50;95699.00;5073090;28;20448;-57
2023/09/10 01:01:06;;;;;;;0.40;0.20;;;;;;;18.30;46.45;95663.69;5071915;28;20433;-56
2023/09/10 01:03:36;;;;;;;0.43;0.30;;;;;;;18.42;46.70;95667.38;5072462;28;20481;-57
2023/09/10 01:06:05;;;;;;;0.60;0.60;;;;;;;18.10;46.48;95658.84;5070842;28;20441;-56
2023/09/10 01:08:33;;;;;;;0.77;0.67;;;;;;;18.09;46.77;95660.75;5072625;28;20441;-56
2023/09/10 01:11:08;;;;;;;0.93;0.40;;;;;;;18.16;46.02;95669.16;5072538;28;20444;-57
2023/09/10 01:13:53;;;;;;;2.63;0.87;;;;;;;17.88;46.09;95661.56;5072933;28;20437;-56
2023/09/10 01:16:27;;;;;;;0.50;0.30;;;;;;;17.82;46.00;95652.06;5050658;28;20528;-57
2023/09/10 01:19:03;;;;;;;0.40;0.30;;;;;;;17.83;46.24;95653.66;5072452;28;20448;-56
2023/09/10 01:21:41;;;;;;;1.37;0.50;;;;;;;17.79;46.16;95653.47;5072039;28;20539;-56
2023/09/10 01:24:18;;;;;;;1.03;0.50;;;;;;;17.91;45.75;95658.28;5071412;28;20541;-56
2023/09/10 01:26:56;;;;;;;0.60;0.60;;;;;;;17.67;46.80;95645.19;5072298;28;20437;-56
2023/09/10 01:29:24;;;;;;;0.50;0.33;;;;;;;17.73;46.35;95666.19;5071887;28;20445;-56
2023/09/10 01:31:58;;;;;;;0.40;0.30;;;;;;;17.39;47.28;95620.38;5072234;28;20449;-57
2023/09/10 01:34:30;;;;;;;0.50;0.40;;;;;;;16.90;46.91;95565.00;5071733;28;20961;-57
2023/09/10 01:37:13;;;;;;;0.50;0.30;;;;;;;17.42;47.52;95651.13;5072074;28;20444;-57
2023/09/10 01:39:44;;;;;;;0.50;0.30;;;;;;;17.61;47.72;95657.91;5057711;28;20965;-57
2023/09/10 01:42:16;;;;;;;0.73;0.30;;;;;;;17.46;47.36;95660.94;5059720;28;20442;-57
2023/09/10 01:44:47;;;;;;;0.50;0.30;;;;;;;17.49;46.99;95622.00;5071518;28;20568;-56
2023/09/10 01:47:15;;;;;;;0.73;0.73;;;;;;;17.43;48.48;95653.50;5071214;28;20452;-56
2023/09/10 01:49:44;;;;;;;1.13;0.47;;;;;;;17.38;47.69;95650.94;5071621;28;20556;-56
2023/09/10 01:52:12;;;;;;;0.50;0.30;;;;;;;17.30;47.38;95646.31;5071554;28;20525;-56
2023/09/10 01:54:41;;;;;;;0.60;0.50;;;;;;;17.49;46.94;95646.94;5071670;28;20452;-56
2023/09/10 01:57:09;;;;;;;0.50;0.30;;;;;;;17.73;46.67;95636.72;5071386;28;20506;-57
2023/09/10 01:59:39;;;;;;;0.40;0.30;;;;;;;17.68;46.59;95639.50;5070330;28;20938;-57
2023/09/10 02:02:07;;;;;;;0.60;0.60;;;;;;;17.72;46.82;95637.03;5071516;28;20441;-58
2023/09/10 02:04:36;;;;;;;0.50;0.30;;;;;;;17.70;46.80;95644.59;5070755;28;20586;-57
2023/09/10 02:07:04;;;;;;;7.43;0.53;;;;;;;17.84;46.46;95636.44;5071667;28;20442;-57
2023/09/10 02:09:33;;;;;;;0.63;0.63;;;;;;;17.71;50.78;95633.53;5070765;28;20473;-57
2023/09/10 02:12:00;;;;;;;0.93;0.60;;;;;;;17.26;46.36;95570.31;5071725;28;20437;-56
2023/09/10 02:14:28;;;;;;;0.50;0.40;;;;;;;17.91;46.58;95644.88;5071586;28;20441;-56
2023/09/10 02:16:58;;;;;;;0.50;0.40;;;;;;;17.70;46.32;95623.94;5070796;28;20537;-55
2023/09/10 02:19:26;;;;;;;0.40;0.20;;;;;;;17.88;45.50;95632.88;5045851;28;20437;-57
2023/09/10 02:21:55;;;;;;;0.50;0.33;;;;;;;17.58;46.05;95644.34;5071394;28;20437;-56
2023/09/10 02:24:23;;;;;;;0.63;0.50;;;;;;;17.37;47.91;95627.13;5070825;28;20554;-57
2023/09/10 02:26:51;;;;;;;0.40;0.37;;;;;;;17.29;47.19;95642.03;5070891;28;20582;-56
2023/09/10 02:29:20;;;;;;;0.60;0.40;;;;;;;17.45;47.02;95645.16;5071134;28;20448;-56
2023/09/10 02:31:48;;;;;;;0.40;0.40;;;;;;;17.13;47.27;95597.94;5070816;28;20865;-56
2023/09/10 02:34:18;;;;;;;0.50;0.30;;;;;;;17.64;48.10;95643.91;5071190;28;20491;-56
2023/09/10 02:36:46;;;;;;;0.70;0.30;;;;;;;17.28;48.82;95651.16;5071395;28;20507;-56
2023/09/10 02:39:15;;;;;;;1.00;0.40;;;;;;;17.05;49.21;95657.59;5071472;28;20441;-57
2023/09/10 02:41:44;;;;;;;0.90;0.50;;;;;;;17.15;49.51;95652.03;5070916;28;20495;-55
2023/09/10 02:44:13;;;;;;;0.60;0.40;;;;;;;16.97;48.57;95659.13;5070701;28;20584;-56
2023/09/10 02:46:41;;;;;;;0.93;0.93;;;;;;;17.31;48.67;95649.78;5070669;28;20524;-55
2023/09/10 02:49:09;;;;;;;0.70;0.57;;;;;;;17.36;47.86;95649.66;5071065;28;20471;-55
2023/09/10 02:51:39;;;;;;;0.60;0.50;;;;;;;17.45;47.53;95656.69;5070067;28;20437;-55
2023/09/10 02:54:07;;;;;;;0.50;0.30;;;;;;;17.33;47.98;95645.69;5070847;28;20438;-55
2023/09/10 02:56:36;;;;;;;0.73;0.50;;;;;;;17.12;47.69;95644.59;5069398;28;20433;-56
2023/09/10 02:59:04;;;;;;;0.50;0.30;;;;;;;17.37;46.84;95656.59;5071044;28;20443;-56
2023/09/10 03:01:34;;;;;;;0.80;0.43;;;;;;;17.19;49.18;95642.28;5070366;28;20536;-55
2023/09/10 03:04:02;;;;;;;0.80;0.50;;;;;;;16.79;50.09;95657.34;5070387;28;20479;-55
2023/09/10 03:06:31;;;;;;;0.60;0.50;;;;;;;16.94;49.60;95648.19;5070703;28;20536;-55
2023/09/10 03:09:01;;;;;;;0.50;0.30;;;;;;;16.83;49.71;95646.81;5057356;28;20822;-55
2023/09/10 03:11:31;;;;;;;0.60;0.37;;;;;;;16.87;48.38;95642.47;5070857;28;20529;-55
2023/09/10 03:13:59;;;;;;;0.60;0.40;;;;;;;17.16;47.99;95640.19;5071224;28;20473;-55
2023/09/10 03:16:27;;;;;;;0.50;0.40;;;;;;;16.95;47.90;95623.03;5070983;28;20441;-55
2023/09/10 03:18:56;;;;;;;0.50;0.30;;;;;;;17.16;48.56;95648.22;5070757;28;20473;-56
2023/09/10 03:21:24;;;;;;;1.10;0.40;;;;;;;17.13;47.57;95641.59;5069889;28;20441;-56
2023/09/10 03:23:53;;;;;;;0.80;0.50;;;;;;;17.35;47.34;95653.44;5070217;28;20511;-56
2023/09/10 03:26:23;;;;;;;0.40;0.30;;;;;;;17.23;47.54;95653.97;5071087;28;20490;-56
2023/09/10 03:28:51;;;;;;;0.50;0.40;;;;;;;17.08;47.67;95646.28;5071378;28;20445;-56
2023/09/10 03:31:19;;;;;;;0.40;0.30;;;;;;;17.10;47.58;95642.19;5074261;28;20529;-56
2023/09/10 03:33:49;;;;;;;2.50;1.30;;;;;;;17.22;47.18;95648.91;5074149;28;21014;-56
2023/09/10 03:36:17;;;;;;;0.50;0.30;;;;;;;17.39;46.89;95649.84;5074358;28;20960;-57
2023/09/10 03:38:45;;;;;;;1.23;0.60;;;;;;;17.38;47.83;95653.63;5074586;28;20444;-56
2023/09/10 03:41:14;;;;;;;0.53;0.30;;;;;;;17.34;47.53;95658.00;5074871;28;20441;-56
2023/09/10 03:43:43;;;;;;;8.13;0.67;;;;;;;17.39;46.51;95644.50;5047589;28;20437;-57
2023/09/10 03:46:12;;;;;;;0.50;0.37;;;;;;;17.33;48.96;95651.06;5073412;28;20445;-55
2023/09/10 03:48:40;;;;;;;0.70;0.30;;;;;;;17.20;46.85;95643.06;5074396;28;20830;-57
2023/09/10 03:51:09;;;;;;;0.50;0.40;;;;;;;17.40;46.98;95662.16;5073543;28;20531;-56
2023/09/10 03:53:37;;;;;;;0.60;0.60;;;;;;;17.35;46.92;95656.94;5073751;28;20970;-57
2023/09/10 03:56:06;;;;;;;0.50;0.37;;;;;;;17.43;47.21;95660.75;5074280;28;20502;-56
2023/09/10 03:58:34;;;;;;;0.50;0.40;;;;;;;17.39;46.97;95663.25;5074008;28;20448;-56
2023/09/10 04:01:04;;;;;;;0.60;0.40;;;;;;;17.44;47.15;95663.13;5072240;28;20465;-55
2023/09/10 04:03:32;;;;;;;1.20;0.50;;;;;;;17.35;47.38;95658.81;5073448;28;20445;-55
2023/09/10 04:06:01;;;;;;;0.50;0.33;;;;;;;17.43;48.68;95663.44;5074302;28;20488;-55
2023/09/10 04:08:29;;;;;;;0.60;0.50;;;;;;;17.38;47.45;95658.97;5074088;28;20516;-55
2023/09/10 04:10:57;;;;;;;0.40;0.30;;;;;;;17.41;47.66;95663.72;5066131;28;20437;-55
2023/09/10 04:13:26;;;;;;;0.50;0.50;;;;;;;17.57;47.59;95665.00;5073834;28;20441;-55
2023/09/10 04:15:54;;;;;;;0.60;0.50;;;;;;;17.48;47.67;95663.31;5073194;28;20523;-55
2023/09/10 04:18:24;;;;;;;0.57;0.50;;;;;;;17.45;47.87;95656.69;5073741;28;20515;-56
2023/09/10 04:20:52;;;;;;;1.53;0.40;;;;;;;17.53;47.83;95658.66;5073618;28;20475;-56
2023/09/10 04:23:21;;;;;;;0.50;0.30;;;;;;;17.63;48.89;95671.03;5073122;28;20472;-56
2023/09/10 04:25:51;;;;;;;0.40;0.30;;;;;;;17.50;49.51;95667.28;5073307;28;20472;-55
2023/09/10 04:28:19;;;;;;;0.40;0.20;;;;;;;17.83;48.37;95664.38;5073723;28;20472;-56
2023/09/10 04:30:47;;;;;;;0.40;0.30;;;;;;;17.49;49.20;95671.06;5073537;28;20942;-56
2023/09/10 04:33:17;;;;;;;0.40;0.27;;;;;;;17.64;48.76;95669.91;5073465;28;20784;-56
2023/09/10 04:35:50;;;;;;;0.60;0.37;;;;;;;17.52;48.65;95675.00;5073474;28;20532;-56
2023/09/10 04:38:19;;;;;;;0.83;0.83;;;;;;;17.69;47.67;95673.28;5073207;28;20526;-57
2023/09/10 04:40:47;;;;;;;0.40;0.30;;;;;;;17.67;48.40;95683.53;5073012;28;20495;-56
2023/09/10 04:43:15;;;;;;;0.67;0.30;;;;;;;18.08;47.80;95675.28;5072874;28;20441;-56
2023/09/10 04:45:44;;;;;;;0.43;0.30;;;;;;;18.20;47.79;95669.31;5073062;28;20990;-57
2023/09/10 04:48:12;;;;;;;0.63;0.60;;;;;;;18.07;48.14;95675.56;5072761;28;20520;-57
2023/09/10 04:50:41;;;;;;;0.70;0.63;;;;;;;18.24;49.11;95676.44;5073228;28;20518;-56
2023/09/10 04:53:11;;;;;;;0.50;0.30;;;;;;;18.38;49.21;95665.63;5072723;28;20436;-57
2023/09/10 04:55:40;;;;;;;0.40;0.30;;;;;;;18.45;49.27;95668.63;5073196;28;20522;-57
2023/09/10 04:58:08;;;;;;;0.40;0.20;;;;;;;18.58;49.30;95678.50;5072851;28;20471;-56
2023/09/10 05:00:40;;;;;;;0.40;0.30;;;;;;;18.33;50.37;95676.50;5072870;28;20921;-57
2023/09/10 05:03:08;;;;;;;0.40;0.40;;;;;;;18.11;49.78;95631.75;5072790;28;20469;-58
2023/09/10 05:05:37;;;;;;;0.73;0.40;;;;;;;18.19;50.32;95673.88;5072666;28;20476;-57
2023/09/10 05:08:06;;;;;;;0.40;0.37;;;;;;;18.52;50.30;95676.28;5046750;28;20498;-56
2023/09/10 05:10:35;;;;;;;0.40;0.30;;;;;;;18.71;50.62;95672.25;5059554;28;20434;-55
2023/09/10 05:13:04;;;;;;;0.50;0.30;;;;;;;18.80;50.00;95677.63;5071594;28;20442;-56
2023/09/10 05:15:32;;;;;;;0.40;0.30;;;;;;;19.10;47.86;95674.06;5071808;28;20445;-56
2023/09/10 05:18:01;;;;;;;0.60;0.40;;;;;;;18.96;48.32;95674.22;5071971;28;20449;-58
2023/09/10 05:20:31;;;;;;;0.87;0.40;;;;;;;19.07;46.71;95666.66;5071693;28;20445;-56
2023/09/10 05:23:00;;;;;;;0.50;0.30;;;;;;;19.32;46.47;95665.09;5072269;28;20433;-57
2023/09/10 05:25:28;;;;;;;0.40;0.20;;;;;;;19.32;46.33;95667.78;5071233;28;20467;-57
2023/09/10 05:27:58;;;;;;;0.40;0.30;;;;;;;19.59;45.88;95668.28;5071936;28;20473;-55
2023/09/10 05:30:27;;;;;;;0.60;0.40;;;;;;;19.46;45.50;95671.13;5070682;28;21136;-55
2023/09/10 05:32:56;;;;;;;0.40;0.30;;;;;;;19.75;45.32;95665.09;5071716;28;20444;-57
2023/09/10 05:35:25;;;;;;;0.40;0.20;;;;;;;19.61;46.74;95660.69;5072196;28;20449;-56
2023/09/10 05:37:53;;;;;;;0.40;0.20;;;;;;;19.64;46.20;95664.63;5071660;28;20437;-57
2023/09/10 05:40:22;;;;;;;0.40;0.20;;;;;;;19.80;45.83;95665.72;5071374;28;20437;-56
2023/09/10 05:42:50;;;;;;;0.50;0.30;;;;;;;19.83;45.83;95657.03;5071801;28;20486;-54
2023/09/10 05:45:20;;;;;;;2.70;0.40;;;;;;;19.82;48.63;95660.81;5045799;28;20505;-57
2023/09/10 05:47:50;;;;;;;0.40;0.30;;;;;;;19.89;45.68;95660.31;5071358;28;20433;-56
2023/09/10 05:50:18;;;;;;;0.50;0.30;;;;;;;20.16;45.17;95665.34;5071391;28;20477;-56
2023/09/10 05:52:47;;;;;;;0.87;0.40;;;;;;;20.41;45.37;95663.72;5070895;28;20445;-58
2023/09/10 05:55:15;;;;;;;0.60;0.40;;;;;;;20.77;45.18;95672.13;5071517;28;20499;-56
2023/09/10 05:57:43;;;;;;;0.50;0.30;;;;;;;21.11;44.35;95663.84;5071007;28;20449;-55
2023/09/10 06:00:13;;;;;;;3.37;0.50;;;;;;;21.56;43.80;95664.00;5071503;28;20444;-56
2023/09/10 06:02:43;;;;;;;0.60;0.60;;;;;;;21.87;42.24;95664.38;5071051;28;21092;-55
2023/09/10 06:05:12;;;;;;;0.40;0.30;;;;;;;22.42;42.29;95657.75;5071154;28;20949;-56
2023/09/10 06:07:44;;;;;;;0.53;0.53;;;;;;;22.65;43.79;95667.84;5070594;28;20434;-53
2023/09/10 06:10:13;;;;;;;0.50;0.50;;;;;;;22.42;44.31;95684.75;5071421;28;20971;-53
2023/09/10 06:12:41;;;;;;;0.60;0.40;;;;;;;22.32;45.12;95666.28;5070878;28;20440;-53
2023/09/10 06:15:09;;;;;;;2.20;0.67;;;;;;;23.07;45.92;95671.09;5071635;28;20524;-53
2023/09/10 06:17:38;;;;;;;0.80;0.43;;;;;;;21.96;47.42;95678.56;5070868;28;20433;-53
2023/09/10 06:20:09;;;;;;;0.50;0.40;;;;;;;21.95;47.99;95681.63;5070283;28;20484;-53
2023/09/10 06:22:37;;;;;;;0.40;0.30;;;;;;;22.96;46.27;95675.41;5068706;28;20502;-53
2023/09/10 06:25:07;;;;;;;0.40;0.30;;;;;;;23.42;44.74;95678.75;5067094;28;20437;-54
2023/09/10 06:27:35;;;;;;;0.50;0.30;;;;;;;22.92;46.25;95679.88;5041897;28;21003;-53
2023/09/10 06:30:05;;;;;;;0.57;0.50;;;;;;;22.83;46.20;95686.53;5067571;28;20480;-52
2023/09/10 06:32:33;;;;;;;0.60;0.60;;;;;;;23.38;45.78;95671.31;5067675;28;20907;-53
2023/09/10 06:35:01;;;;;;;0.40;0.30;;;;;;;24.07;44.44;95674.78;5067226;28;20438;-53
2023/09/10 06:37:31;;;;;;;1.53;1.43;;;;;;;24.00;44.99;95673.47;5068514;28;20472;-53
2023/09/10 06:39:59;;;;;;;0.50;0.40;;;;;;;24.41;42.93;95628.88;5071110;28;20449;-53
2023/09/10 06:42:28;;;;;;;2.10;0.37;;;;;;;24.76;42.06;95671.56;5071048;28;20437;-54
2023/09/10 06:44:56;;;;;;;0.50;0.40;;;;;;;25.23;42.45;95673.09;5070878;28;21003;-54
2023/09/10 06:47:25;;;;;;;0.90;0.50;;;;;;;25.71;41.56;95673.78;5070690;28;20989;-55
2023/09/10 06:49:53;;;;;;;0.40;0.30;;;;;;;25.40;42.09;95666.50;5070684;28;20496;-55
2023/09/10 06:52:21;;;;;;;0.77;0.63;;;;;;;24.84;43.47;95641.59;5071175;28;20528;-56
2023/09/10 06:54:51;;;;;;;0.40;0.30;;;;;;;25.43;42.49;95663.06;5070814;28;20964;-54
2023/09/10 06:57:22;;;;;;;1.37;0.60;;;;;;;25.31;42.62;95670.56;5070992;28;20468;-55
2023/09/10 06:59:50;;;;;;;0.90;0.80;;;;;;;24.64;43.77;95669.75;5070742;28;21023;-55
2023/09/10 07:02:18;;;;;;;0.40;0.30;;;;;;;25.03;43.14;95671.47;5070499;28;20433;-55
2023/09/10 07:04:48;;;;;;;0.40;0.30;;;;;;;25.75;41.58;95663.78;5047564;28;20441;-55
2023/09/10 07:07:16;;;;;;;0.60;0.40;;;;;;;26.41;40.05;95661.56;5074273;28;20484;-55
2023/09/10 07:09:45;;;;;;;0.83;0.30;;;;;;;26.94;39.19;95654.31;5074801;28;20433;-53
2023/09/10 07:12:14;;;;;;;0.40;0.30;;;;;;;27.46;39.56;95644.63;5074458;28;20436;-54
2023/09/10 07:14:44;;;;;;;0.50;0.50;;;;;;;26.92;39.47;95651.19;5075078;28;20437;-54
2023/09/10 07:17:12;;;;;;;0.50;0.40;;;;;;;27.67;38.56;95642.19;5074242;28;20494;-54
2023/09/10 07:19:41;;;;;;;0.40;0.30;;;;;;;28.15;37.70;95594.88;5074486;28;20444;-54
2023/09/10 07:22:10;;;;;;;0.70;0.67;;;;;;;28.48;36.77;95639.56;5074052;28;20947;-54
2023/09/10 07:24:38;;;;;;;3.10;0.30;;;;;;;28.98;36.76;95632.59;5074546;28;20804;-54
2023/09/10 07:27:06;;;;;;;0.77;0.40;;;;;;;29.76;36.21;95604.59;5074489;28;20480;-54
2023/09/10 07:29:36;;;;;;;0.63;0.40;;;;;;;30.37;34.83;95628.25;5074975;28;20441;-54
2023/09/10 07:32:05;;;;;;;0.40;0.30;;;;;;;30.15;36.42;95629.34;5074295;28;20437;-54
2023/09/10 07:34:34;;;;;;;0.40;0.30;;;;;;;30.15;35.01;95630.13;5074536;28;20441;-54
2023/09/10 07:37:02;;;;;;;0.40;0.30;;;;;;;29.60;35.12;95619.75;5068519;28;20437;-55
2023/09/10 07:39:31;;;;;;;0.40;0.40;;;;;;;29.78;36.14;95626.88;5067385;28;20454;-54
2023/09/10 07:41:59;;;;;;;0.40;0.40;;;;;;;29.59;35.22;95586.19;5074362;28;20433;-54
2023/09/10 07:44:27;;;;;;;1.37;0.90;;;;;;;29.78;34.80;95607.75;5074197;28;20990;-54
2023/09/10 07:46:57;;;;;;;0.60;0.50;;;;;;;30.85;34.33;95619.66;5048490;28;20508;-54
2023/09/10 07:49:25;;;;;;;0.70;0.70;;;;;;;31.41;33.18;95614.94;5073507;28;20486;-53
2023/09/10 07:51:54;;;;;;;0.50;0.40;;;;;;;31.46;33.57;95612.97;5073401;28;20516;-53
2023/09/10 07:54:22;;;;;;;0.40;0.40;;;;;;;31.05;33.19;95605.22;5072870;28;20528;-53
2023/09/10 07:56:50;;;;;;;0.40;0.30;;;;;;;30.83;32.33;95606.38;5074218;28;20498;-53
2023/09/10 07:59:19;;;;;;;1.63;0.47;;;;;;;31.16;32.20;95599.72;5073544;28;20479;-53
2023/09/10 08:01:47;;;;;;;0.53;0.53;;;;;;;30.64;31.79;95595.81;5073714;28;20443;-53
2023/09/10 08:04:17;;;;;;;0.70;0.70;;;;;;;30.32;31.91;95587.56;5073540;28;20436;-53
2023/09/10 08:06:45;;;;;;;0.60;0.57;;;;;;;30.97;31.76;95592.69;5073614;28;20551;-53
2023/09/10 08:09:13;;;;;;;0.43;0.43;;;;;;;30.93;31.52;95591.94;5073461;28;20437;-53
2023/09/10 08:11:42;;;;;;;0.53;0.40;;;;;;;31.37;31.43;95584.00;5074069;28;20490;-53
2023/09/10 08:14:11;;;;;;;0.60;0.60;;;;;;;30.59;32.14;95598.94;5073861;28;20447;-53
2023/09/10 08:16:39;;;;;;;0.70;0.70;;;;;;;31.13;30.91;95576.66;5073126;28;20477;-53
2023/09/10 08:19:07;;;;;;;0.70;0.63;;;;;;;30.79;31.69;95576.25;5073736;28;20486;-53
2023/09/10 08:21:37;;;;;;;0.40;0.40;;;;;;;28.98;31.93;95466.13;5073277;28;20535;-53
2023/09/10 08:24:06;;;;;;;0.50;0.47;;;;;;;29.31;32.96;95575.13;5073143;28;21115;-53
2023/09/10 08:26:34;;;;;;;0.70;0.60;;;;;;;30.21;33.16;95575.06;5073065;28;20472;-53
2023/09/10 08:29:03;;;;;;;5.40;0.80;;;;;;;30.73;31.87;95553.22;5072777;28;20460;-53
2023/09/10 08:31:32;;;;;;;2.30;0.60;;;;;;;30.26;33.11;95578.19;5072601;28;20440;-53
2023/09/10 08:34:01;;;;;;;0.63;0.60;;;;;;;30.94;31.16;95571.59;5073252;28;20443;-53
2023/09/10 08:36:29;;;;;;;0.40;0.40;;;;;;;31.20;32.37;95573.88;5073028;28;20486;-53
2023/09/10 08:38:59;;;;;;;0.90;0.90;;;;;;;31.04;30.89;95570.81;5073366;28;20494;-52
2023/09/10 08:41:38;;;;;;;0.53;0.40;;;;;;;31.33;31.31;95568.75;5072844;28;20498;-52
2023/09/10 08:44:10;;;;;;;0.80;0.70;;;;;;;31.48;31.40;95553.88;5073340;28;20524;-53
2023/09/10 08:46:40;;;;;;;0.57;0.57;;;;;;;32.19;31.00;95559.00;5072747;28;20440;-53
2023/09/10 08:49:11;;;;;;;0.70;0.70;;;;;;;32.89;30.98;95554.94;5072712;28;20941;-53
2023/09/10 08:51:40;;;;;;;0.60;0.57;;;;;;;33.02;31.25;95536.75;5072560;28;20487;-53
2023/09/10 08:54:11;;;;;;;0.40;0.40;;;;;;;33.41;30.16;95550.88;5073062;28;20440;-53
2023/09/10 08:56:40;;;;;;;0.40;0.30;;;;;;;32.81;29.36;95515.81;5072276;28;20433;-53
2023/09/10 08:59:11;;;;;;;0.60;0.43;;;;;;;33.30;28.42;95533.72;5072927;28;20463;-53
2023/09/10 09:01:40;;;;;;;0.40;0.30;;;;;;;33.46;28.62;95516.66;5072754;28;20437;-53
2023/09/10 09:04:08;;;;;;;0.40;0.40;;;;;;;31.90;30.21;95539.19;5072701;28;20952;-53
2023/09/10 09:06:38;;;;;;;1.10;1.10;;;;;;;31.87;29.62;95556.44;5072770;28;20553;-53
2023/09/10 09:09:08;;;;;;;3.43;0.50;;;;;;;31.19;29.94;95533.22;5071865;28;20458;-53
2023/09/10 09:11:40;;;;;;;0.93;0.83;;;;;;;30.34;30.82;95513.31;5072219;28;21002;-53
2023/09/10 09:14:10;;;;;;;0.40;0.30;;;;;;;30.55;31.00;95530.56;5072223;28;20440;-53
2023/09/10 09:16:40;;;;;;;0.40;0.30;;;;;;;31.37;30.42;95526.47;5072850;28;20441;-54
2023/09/10 09:19:11;;;;;;;4.33;0.80;;;;;;;30.61;31.49;95525.47;5072093;28;20437;-54
2023/09/10 09:21:41;;;;;;;0.50;0.37;;;;;;;30.22;32.81;95536.38;5072818;28;20733;-54
2023/09/10 09:24:12;;;;;;;0.50;0.50;;;;;;;30.38;31.33;95533.31;5072063;28;20440;-54
2023/09/10 09:26:42;;;;;;;0.50;0.50;;;;;;;30.53;32.53;95486.41;5071916;28;20559;-54
2023/09/10 09:29:11;;;;;;;0.40;0.30;;;;;;;31.99;30.07;95523.88;5045862;28;20943;-54
2023/09/10 09:31:40;;;;;;;1.13;1.00;;;;;;;32.97;30.00;95527.00;5071759;28;20531;-53
2023/09/10 09:34:11;;;;;;;0.70;0.53;;;;;;;33.52;29.76;95540.53;5071979;28;20483;-53
2023/09/10 09:36:42;;;;;;;0.50;0.30;;;;;;;33.97;28.69;95523.88;5071292;28;20883;-53
2023/09/10 09:39:17;;;;;;;1.60;0.50;;;;;;;34.92;28.49;95516.84;5072103;28;20441;-53
2023/09/10 09:41:50;;;;;;;1.40;0.90;;;;;;;33.79;27.81;95530.41;5071139;28;20440;-54
2023/09/10 09:44:20;;;;;;;0.50;0.30;;;;;;;34.46;28.13;95517.63;5070841;28;20444;-52
2023/09/10 09:46:48;;;;;;;0.30;0.30;;;;;;;35.39;27.75;95514.81;5071362;28;21003;-54
2023/09/10 09:49:17;;;;;;;0.50;0.40;;;;;;;33.89;28.08;95517.69;5071207;28;20472;-54
2023/09/10 09:51:46;;;;;;;0.40;0.40;;;;;;;33.38;28.60;95526.19;5071142;28;20428;-53
2023/09/10 09:54:14;;;;;;;0.70;0.40;;;;;;;31.97;30.15;95511.72;5071942;28;20459;-53
2023/09/10 09:56:44;;;;;;;0.60;0.60;;;;;;;31.74;29.76;95514.22;5045861;28;20951;-54
2023/09/10 09:59:15;;;;;;;3.80;0.70;;;;;;;30.73;30.83;95486.75;5071154;28;20502;-54
2023/09/10 10:01:45;;;;;;;0.40;0.30;;;;;;;31.21;30.93;95507.00;5071434;28;20432;-54
2023/09/10 10:04:15;;;;;;;0.77;0.77;;;;;;;31.94;30.88;95520.75;5071336;28;20443;-54
2023/09/10 10:06:44;;;;;;;0.57;0.50;;;;;;;32.55;30.53;95525.44;5071259;28;20804;-53
2023/09/10 10:09:18;;;;;;;0.60;0.60;;;;;;;33.89;30.24;95517.69;5070965;28;20479;-53
2023/09/10 10:11:48;;;;;;;1.70;0.53;;;;;;;34.60;28.27;95520.19;5071314;28;20507;-53
2023/09/10 10:14:20;;;;;;;0.70;0.70;;;;;;;34.75;27.59;95499.47;5070733;28;20439;-53
2023/09/10 10:16:50;;;;;;;0.50;0.40;;;;;;;33.92;27.13;95513.34;5071651;28;20550;-53
2023/09/10 10:19:19;;;;;;;0.40;0.30;;;;;;;32.30;28.70;95521.31;5070858;28;20436;-53
2023/09/10 10:21:48;;;;;;;3.70;0.80;;;;;;;31.76;30.54;95525.53;5071011;28;20444;-53
2023/09/10 10:24:17;;;;;;;0.40;0.30;;;;;;;33.17;29.11;95527.19;5044499;28;20436;-53
2023/09/10 10:26:47;;;;;;;0.40;0.30;;;;;;;33.43;28.10;95512.78;5070033;28;20822;-53
2023/09/10 10:29:18;;;;;;;0.70;0.60;;;;;;;33.86;27.50;95518.50;5071055;28;20510;-54
2023/09/10 10:31:55;;;;;;;2.10;0.50;;;;;;;34.63;27.76;95515.81;5070580;28;20436;-53
2023/09/10 10:34:25;;;;;;;0.40;0.30;;;;;;;34.55;28.02;95495.88;5071117;28;20440;-53
2023/09/10 10:37:03;;;;;;;2.63;0.57;;;;;;;34.73;27.37;95512.88;5070461;28;20501;-54
2023/09/10 10:39:39;;;;;;;0.50;0.50;;;;;;;35.12;27.54;95516.94;5069911;28;20975;-54
2023/09/10 10:42:10;;;;;;;0.40;0.33;;;;;;;35.62;25.97;95512.00;5071296;28;20877;-54
2023/09/10 10:44:40;;;;;;;1.13;0.30;;;;;;;35.27;26.18;95496.16;5070256;28;20567;-54
2023/09/10 10:47:14;;;;;;;0.50;0.50;;;;;;;35.36;26.29;95512.91;5071333;28;20468;-54
2023/09/10 10:49:51;;;;;;;0.60;0.47;;;;;;;35.41;26.17;95510.44;5070409;28;20565;-54
2023/09/10 10:52:23;;;;;;;0.77;0.60;;;;;;;35.80;26.03;95498.59;5070228;28;20478;-54
2023/09/10 10:54:52;;;;;;;0.90;0.70;;;;;;;36.02;26.36;95505.25;5070828;28;20238;-54
2023/09/10 10:57:22;;;;;;;1.90;0.40;;;;;;;34.87;26.35;95495.31;5071154;28;20198;-54
2023/09/10 10:59:53;;;;;;;0.50;0.40;;;;;;;34.86;27.32;95502.81;5070457;28;20704;-54
2023/09/10 11:02:22;;;;;;;1.60;0.50;;;;;;;35.56;26.92;95494.41;5070369;28;20289;-55
2023/09/10 11:04:55;;;;;;;0.40;0.30;;;;;;;35.63;26.74;95488.72;5063196;28;20203;-54
2023/09/10 11:07:26;;;;;;;1.00;0.70;;;;;;;35.49;25.69;95495.31;5051938;28;20209;-54
2023/09/10 11:09:55;;;;;;;0.87;0.30;;;;;;;35.23;26.66;95487.19;5071016;28;20268;-54
2023/09/10 11:12:23;;;;;;;1.97;1.80;;;;;;;34.82;26.72;95480.06;5070251;28;20594;-53
2023/09/10 11:15:14;;;;;;;0.40;0.30;;;;;;;34.82;25.43;95485.56;5070709;28;20221;-53
2023/09/10 11:17:42;;;;;;;0.90;0.33;;;;;;;35.27;25.92;95480.38;5070161;28;20206;-53
2023/09/10 11:20:11;;;;;;;0.53;0.47;;;;;;;35.30;26.24;95473.25;5070923;28;20632;-54
2023/09/10 11:23:12;;;;;;;1.20;1.10;;;;;;;34.73;26.60;95476.31;5070198;28;20659;-53
2023/09/10 11:25:40;;;;;;;0.60;0.40;;;;;;;35.40;26.31;95472.25;5027775;28;20678;-54
2023/09/10 11:28:41;;;;;;;0.90;0.50;;;;;;;34.39;26.68;95480.00;5028237;28;20568;-54
2023/09/10 11:31:45;;;;;;;0.50;0.50;;;;;;;34.88;27.25;95450.06;5037239;28;20613;-54
2023/09/10 11:34:38;;;;;;;0.57;0.57;;;;;;;35.58;25.46;95458.91;5070466;28;20689;-54
2023/09/10 11:37:09;;;;;;;0.40;0.30;;;;;;;35.64;25.33;95469.00;5070341;28;20252;-54
2023/09/10 11:39:38;;;;;;;0.40;0.30;;;;;;;35.91;25.61;95460.50;5070315;28;20613;-54
2023/09/10 11:42:11;;;;;;;0.40;0.30;;;;;;;36.10;25.31;95434.84;5070138;28;20198;-55
2023/09/10 11:44:40;;;;;;;1.00;0.67;;;;;;;36.52;25.01;95449.63;5069897;28;20202;-54
2023/09/10 11:47:09;;;;;;;2.47;0.40;;;;;;;36.47;24.31;95449.34;5070093;28;20198;-54